createdAt,value
2017-09-01T00:02:02.711Z,16.50
2017-09-01T00:04:29.620Z,16.50
2017-09-01T00:06:56.524Z,16.50
2017-09-01T00:09:24.329Z,16.30
2017-09-01T00:11:51.752Z,16.30
2017-09-01T00:14:18.642Z,16.30
2017-09-01T00:16:45.572Z,16.30
2017-09-01T00:19:12.514Z,16.20
2017-09-01T00:21:39.408Z,16.20
2017-09-01T00:24:06.305Z,16.20
2017-09-01T00:26:33.245Z,16.30
2017-09-01T00:29:00.125Z,16.30
2017-09-01T00:31:27.105Z,16.20
2017-09-01T00:33:54.068Z,16.10
2017-09-01T00:36:21.771Z,16.00
2017-09-01T00:38:48.740Z,15.90
2017-09-01T00:41:15.662Z,15.90
2017-09-01T00:43:42.657Z,15.90
2017-09-01T00:46:09.569Z,15.80
2017-09-01T00:48:36.550Z,15.80
2017-09-01T00:51:03.621Z,15.80
2017-09-01T00:53:30.519Z,15.70
2017-09-01T00:55:57.588Z,15.60
2017-09-01T00:58:26.253Z,15.60
2017-09-01T01:00:53.137Z,15.60
2017-09-01T01:03:20.889Z,15.70
2017-09-01T01:05:47.800Z,15.70
2017-09-01T01:08:14.779Z,15.70
2017-09-01T01:10:41.743Z,15.70
2017-09-01T01:13:08.796Z,15.70
2017-09-01T01:15:35.844Z,15.70
2017-09-01T01:18:02.784Z,15.60
2017-09-01T01:20:30.503Z,15.40
2017-09-01T01:22:57.531Z,15.30
2017-09-01T01:25:24.477Z,15.30
2017-09-01T01:27:51.492Z,15.30
2017-09-01T01:30:19.249Z,15.30
2017-09-01T01:32:46.233Z,15.20
2017-09-01T01:35:13.279Z,15.30
2017-09-01T01:37:40.240Z,15.30
2017-09-01T01:40:07.180Z,15.10
2017-09-01T01:42:34.206Z,15.10
2017-09-01T01:45:01.177Z,15.20
2017-09-01T01:47:28.237Z,15.10
2017-09-01T01:49:55.285Z,15.10
2017-09-01T01:52:22.397Z,15.10
2017-09-01T01:54:49.409Z,15.00
2017-09-01T01:57:16.455Z,15.00
2017-09-01T01:59:43.474Z,14.90
2017-09-01T02:02:10.447Z,14.90
2017-09-01T02:04:48.387Z,14.90
2017-09-01T02:07:17.373Z,14.90
2017-09-01T02:09:44.931Z,14.90
2017-09-01T02:12:11.892Z,14.90
2017-09-01T02:14:38.787Z,14.90
2017-09-01T02:17:05.758Z,14.80
2017-09-01T02:19:32.809Z,14.80
2017-09-01T02:21:59.797Z,14.70
2017-09-01T02:24:26.827Z,14.70
2017-09-01T02:26:53.804Z,14.60
2017-09-01T02:29:20.776Z,14.60
2017-09-01T02:31:47.770Z,14.60
2017-09-01T02:34:15.584Z,14.60
2017-09-01T02:36:42.550Z,14.50
2017-09-01T02:39:09.492Z,14.60
2017-09-01T02:41:36.584Z,14.70
2017-09-01T02:44:03.520Z,14.60
2017-09-01T02:46:30.515Z,14.50
2017-09-01T02:48:57.577Z,14.60
2017-09-01T02:51:24.583Z,14.50
2017-09-01T02:53:51.551Z,14.50
2017-09-01T02:56:18.613Z,14.50
2017-09-01T02:58:45.582Z,14.50
2017-09-01T03:01:12.529Z,14.50
2017-09-01T03:03:39.460Z,14.50
2017-09-01T03:06:06.424Z,14.50
2017-09-01T03:08:33.524Z,14.40
2017-09-01T03:11:00.537Z,14.40
2017-09-01T03:13:27.524Z,14.40
2017-09-01T03:15:54.633Z,14.40
2017-09-01T03:18:21.759Z,14.40
2017-09-01T03:20:48.755Z,14.40
2017-09-01T03:23:15.718Z,14.30
2017-09-01T03:25:42.861Z,14.30
2017-09-01T03:28:09.941Z,14.20
2017-09-01T03:30:36.877Z,14.10
2017-09-01T03:33:03.796Z,14.10
2017-09-01T03:35:30.875Z,14.10
2017-09-01T03:37:57.839Z,14.10
2017-09-01T03:40:24.784Z,14.10
2017-09-01T03:42:51.815Z,14.10
2017-09-01T03:45:18.871Z,14.20
2017-09-01T03:47:45.868Z,14.20
2017-09-01T03:50:12.932Z,14.10
2017-09-01T03:52:39.987Z,14.20
2017-09-01T03:55:06.991Z,14.20
2017-09-01T03:57:33.984Z,14.10
2017-09-01T04:00:00.897Z,14.10
2017-09-01T04:02:27.877Z,14.10
2017-09-01T04:04:54.876Z,14.10
2017-09-01T04:07:21.768Z,14.00
2017-09-01T04:09:48.796Z,14.00
2017-09-01T04:12:15.774Z,14.00
2017-09-01T04:14:42.950Z,14.00
2017-09-01T04:17:09.983Z,14.00
2017-09-01T04:19:36.942Z,14.00
2017-09-01T04:22:03.899Z,13.90
2017-09-01T04:24:30.834Z,13.90
2017-09-01T04:27:14.791Z,13.80
2017-09-01T04:29:42.502Z,13.80
2017-09-01T04:32:09.463Z,13.80
2017-09-01T04:34:36.428Z,13.80
2017-09-01T04:37:05.864Z,14.00
2017-09-01T04:39:34.864Z,14.20
2017-09-01T04:42:04.680Z,14.20
2017-09-01T04:44:37.963Z,14.20
2017-09-01T04:47:05.280Z,14.30
2017-09-01T04:49:32.976Z,14.40
2017-09-01T04:51:59.917Z,14.40
2017-09-01T04:54:26.876Z,14.40
2017-09-01T04:56:53.776Z,14.50
2017-09-01T04:59:20.800Z,14.40
2017-09-01T05:01:47.800Z,14.50
2017-09-01T05:04:14.820Z,14.40
2017-09-01T05:06:41.827Z,14.50
2017-09-01T05:09:08.817Z,14.50
2017-09-01T05:11:35.824Z,14.50
2017-09-01T05:14:02.810Z,14.60
2017-09-01T05:16:29.734Z,14.60
2017-09-01T05:18:56.757Z,14.60
2017-09-01T05:21:23.650Z,14.50
2017-09-01T05:23:50.638Z,14.50
2017-09-01T05:26:18.297Z,14.60
2017-09-01T05:28:45.248Z,14.60
2017-09-01T05:31:12.319Z,14.60
2017-09-01T05:33:39.984Z,14.40
2017-09-01T05:36:18.808Z,14.40
2017-09-01T05:38:46.482Z,14.50
2017-09-01T05:41:14.183Z,14.60
2017-09-01T05:43:41.187Z,14.50
2017-09-01T05:46:08.924Z,14.70
2017-09-01T05:48:35.919Z,14.70
2017-09-01T05:51:02.802Z,14.90
2017-09-01T05:53:29.803Z,14.80
2017-09-01T05:55:58.219Z,14.90
2017-09-01T05:58:25.109Z,14.90
2017-09-01T06:00:52.808Z,15.20
2017-09-01T06:03:19.748Z,15.20
2017-09-01T06:05:46.697Z,15.30
2017-09-01T06:08:13.616Z,15.50
2017-09-01T06:10:40.551Z,15.60
2017-09-01T06:13:07.429Z,15.50
2017-09-01T06:15:34.381Z,15.70
2017-09-01T06:18:01.391Z,15.80
2017-09-01T06:20:28.316Z,15.80
2017-09-01T06:22:55.316Z,15.70
2017-09-01T06:25:22.272Z,15.60
2017-09-01T06:28:03.582Z,15.60
2017-09-01T06:30:34.108Z,15.50
2017-09-01T06:33:08.191Z,15.60
2017-09-01T06:35:35.127Z,15.40
2017-09-01T06:38:02.878Z,15.60
2017-09-01T06:40:30.711Z,15.70
2017-09-01T06:43:00.859Z,15.70
2017-09-01T06:45:28.605Z,16.20
2017-09-01T06:47:55.576Z,16.20
2017-09-01T06:50:27.274Z,16.30
2017-09-01T06:53:07.597Z,16.40
2017-09-01T06:55:38.491Z,16.60
2017-09-01T06:58:05.929Z,16.60
2017-09-01T07:00:33.661Z,16.70
2017-09-01T07:03:01.601Z,17.00
2017-09-01T07:05:28.510Z,17.00
2017-09-01T07:07:55.552Z,17.00
2017-09-01T07:10:24.167Z,17.00
2017-09-01T07:12:52.494Z,17.10
2017-09-01T07:15:20.100Z,17.40
2017-09-01T07:17:47.118Z,17.40
2017-09-01T07:20:14.100Z,17.40
2017-09-01T07:22:41.089Z,17.50
2017-09-01T07:25:08.065Z,17.50
2017-09-01T07:27:35.017Z,17.30
2017-09-01T07:30:01.937Z,17.40
2017-09-01T07:32:29.695Z,17.70
2017-09-01T07:34:57.398Z,17.90
2017-09-01T07:37:24.404Z,17.80
2017-09-01T07:39:52.164Z,18.10
2017-09-01T07:42:19.180Z,18.10
2017-09-01T07:44:46.052Z,18.30
2017-09-01T07:47:12.958Z,18.40
2017-09-01T07:49:39.884Z,18.40
2017-09-01T07:52:06.844Z,18.60
2017-09-01T07:54:33.777Z,18.70
2017-09-01T07:57:00.682Z,18.70
2017-09-01T07:59:27.689Z,18.90
2017-09-01T08:01:54.591Z,18.90
2017-09-01T08:04:26.263Z,18.80
2017-09-01T08:06:53.144Z,18.80
2017-09-01T08:09:20.064Z,19.00
2017-09-01T08:11:47.022Z,18.80
2017-09-01T08:14:13.921Z,18.90
2017-09-01T08:16:41.561Z,19.10
2017-09-01T08:19:08.538Z,19.10
2017-09-01T08:21:36.203Z,19.20
2017-09-01T08:24:03.938Z,19.50
2017-09-01T08:26:30.821Z,19.50
2017-09-01T08:28:57.733Z,19.80
2017-09-01T08:31:24.738Z,20.20
2017-09-01T08:33:51.629Z,20.60
2017-09-01T08:36:18.647Z,21.00
2017-09-01T08:38:45.616Z,21.40
2017-09-01T08:41:12.500Z,21.70
2017-09-01T08:43:39.525Z,21.80
2017-09-01T08:46:06.481Z,21.80
2017-09-01T08:48:34.110Z,22.40
2017-09-01T08:51:01.087Z,22.40
2017-09-01T08:53:27.998Z,22.50
2017-09-01T08:55:54.929Z,22.90
2017-09-01T08:58:21.888Z,22.90
2017-09-01T09:00:48.805Z,23.00
2017-09-01T09:03:15.785Z,23.60
2017-09-01T09:05:42.704Z,23.70
2017-09-01T09:08:09.857Z,23.00
2017-09-01T09:10:36.767Z,23.20
2017-09-01T09:13:04.457Z,20.90
2017-09-01T09:15:31.412Z,20.80
2017-09-01T09:17:58.348Z,22.50
2017-09-01T09:20:25.422Z,23.70
2017-09-01T09:22:52.380Z,24.10
2017-09-01T09:25:19.316Z,24.20
2017-09-01T09:27:46.270Z,23.90
2017-09-01T09:30:13.221Z,22.30
2017-09-01T09:32:40.218Z,22.20
2017-09-01T09:35:07.521Z,22.80
2017-09-01T09:37:34.414Z,23.00
2017-09-01T09:40:02.092Z,23.80
2017-09-01T09:42:28.964Z,23.80
2017-09-01T09:44:55.863Z,24.40
2017-09-01T09:47:23.548Z,24.40
2017-09-01T09:49:50.426Z,24.30
2017-09-01T09:52:17.404Z,24.40
2017-09-01T09:54:44.302Z,23.80
2017-09-01T09:57:11.256Z,24.00
2017-09-01T09:59:38.141Z,24.30
2017-09-01T10:02:05.128Z,24.00
2017-09-01T10:04:32.003Z,24.30
2017-09-01T10:06:58.947Z,24.00
2017-09-01T10:09:25.840Z,23.70
2017-09-01T10:11:53.582Z,24.10
2017-09-01T10:14:20.540Z,24.00
2017-09-01T10:16:48.258Z,23.80
2017-09-01T10:19:15.231Z,23.80
2017-09-01T10:21:42.193Z,24.20
2017-09-01T10:24:09.117Z,23.00
2017-09-01T10:26:36.176Z,23.80
2017-09-01T10:29:03.136Z,22.70
2017-09-01T10:31:30.007Z,22.70
2017-09-01T10:33:56.945Z,21.40
2017-09-01T10:36:23.899Z,22.30
2017-09-01T10:38:50.772Z,22.90
2017-09-01T10:41:17.668Z,22.80
2017-09-01T10:43:45.420Z,22.50
2017-09-01T10:46:12.371Z,22.50
2017-09-01T10:48:51.320Z,22.20
2017-09-01T10:51:31.036Z,23.10
2017-09-01T10:54:09.894Z,23.10
2017-09-01T10:56:49.568Z,23.30
2017-09-01T10:59:16.646Z,23.30
2017-09-01T11:01:43.553Z,23.70
2017-09-01T11:04:10.564Z,23.80
2017-09-01T11:06:38.200Z,24.50
2017-09-01T11:09:05.153Z,24.50
2017-09-01T11:11:32.031Z,24.60
2017-09-01T11:13:59.860Z,25.00
2017-09-01T11:16:26.723Z,25.00
2017-09-01T11:18:59.482Z,24.70
2017-09-01T11:21:32.343Z,24.60
2017-09-01T11:24:05.207Z,24.20
2017-09-01T11:26:32.083Z,23.80
2017-09-01T11:28:59.000Z,23.50
2017-09-01T11:31:25.990Z,23.70
2017-09-01T11:33:52.877Z,23.90
2017-09-01T11:36:24.398Z,23.60
2017-09-01T11:38:51.864Z,23.80
2017-09-01T11:41:18.908Z,23.60
2017-09-01T11:43:45.834Z,24.00
2017-09-01T11:46:12.719Z,24.70
2017-09-01T11:48:40.439Z,25.10
2017-09-01T11:51:07.485Z,25.10
2017-09-01T11:53:36.926Z,24.60
2017-09-01T11:56:07.120Z,23.50
2017-09-01T11:58:34.166Z,24.40
2017-09-01T12:01:11.592Z,25.00
2017-09-01T12:03:46.549Z,25.70
2017-09-01T12:08:50.724Z,25.40
2017-09-01T12:11:20.674Z,25.40
2017-09-01T12:13:50.103Z,25.30
2017-09-01T12:16:23.228Z,24.90
2017-09-01T12:18:51.505Z,24.80
2017-09-01T12:21:19.112Z,25.20
2017-09-01T12:23:46.064Z,24.90
2017-09-01T12:26:13.754Z,25.10
2017-09-01T12:28:45.797Z,25.00
2017-09-01T12:31:13.150Z,25.20
2017-09-01T12:33:40.795Z,23.60
2017-09-01T12:36:07.752Z,23.60
2017-09-01T12:38:34.721Z,23.30
2017-09-01T12:41:01.729Z,24.20
2017-09-01T12:43:28.708Z,24.20
2017-09-01T12:45:56.477Z,24.10
2017-09-01T12:48:24.300Z,23.70
2017-09-01T12:50:51.273Z,23.70
2017-09-01T12:53:18.202Z,24.10
2017-09-01T12:55:45.189Z,24.20
2017-09-01T12:58:12.180Z,24.80
2017-09-01T13:00:39.122Z,24.80
2017-09-01T13:03:06.002Z,24.70
2017-09-01T13:05:32.982Z,25.00
2017-09-01T13:07:59.950Z,25.00
2017-09-01T13:10:26.844Z,25.30
2017-09-01T13:12:53.881Z,25.00
2017-09-01T13:15:20.803Z,24.60
2017-09-01T13:17:47.701Z,24.50
2017-09-01T13:20:15.461Z,23.90
2017-09-01T13:22:43.136Z,24.00
2017-09-01T13:25:10.091Z,24.00
2017-09-01T13:27:37.189Z,24.20
2017-09-01T13:30:04.161Z,23.70
2017-09-01T13:32:31.041Z,24.00
2017-09-01T13:34:58.018Z,23.50
2017-09-01T13:37:24.922Z,23.60
2017-09-01T13:39:51.872Z,23.50
2017-09-01T13:42:18.771Z,23.60
2017-09-01T13:44:45.641Z,23.30
2017-09-01T13:47:13.410Z,23.90
2017-09-01T13:49:41.034Z,23.40
2017-09-01T13:52:07.920Z,23.40
2017-09-01T13:54:35.617Z,23.80
2017-09-01T13:57:02.526Z,23.80
2017-09-01T13:59:30.262Z,24.60
2017-09-01T14:01:57.144Z,24.60
2017-09-01T14:04:24.116Z,24.40
2017-09-01T14:06:51.110Z,24.50
2017-09-01T14:09:18.186Z,24.30
2017-09-01T14:11:45.829Z,23.10
2017-09-01T14:14:12.817Z,23.10
2017-09-01T14:16:39.756Z,23.20
2017-09-01T14:19:06.740Z,23.20
2017-09-01T14:21:33.867Z,22.80
2017-09-01T14:24:00.805Z,22.20
2017-09-01T14:26:27.668Z,22.30
2017-09-01T14:28:54.624Z,22.40
2017-09-01T14:31:21.539Z,22.70
2017-09-01T14:33:48.489Z,22.70
2017-09-01T14:36:15.463Z,22.50
2017-09-01T14:38:42.329Z,22.40
2017-09-01T14:41:10.467Z,22.40
2017-09-01T14:43:37.456Z,22.10
2017-09-01T14:46:04.390Z,22.40
2017-09-01T14:48:31.288Z,22.30
2017-09-01T14:50:58.270Z,22.40
2017-09-01T14:53:25.177Z,21.80
2017-09-01T14:55:52.207Z,22.30
2017-09-01T14:58:19.136Z,22.10
2017-09-01T15:00:46.111Z,22.50
2017-09-01T15:03:13.096Z,22.40
2017-09-01T15:05:39.980Z,22.50
2017-09-01T15:08:07.763Z,22.80
2017-09-01T15:10:34.692Z,22.80
2017-09-01T15:13:02.370Z,22.70
2017-09-01T15:15:29.361Z,22.70
2017-09-01T15:17:56.251Z,23.00
2017-09-01T15:20:23.892Z,23.30
2017-09-01T15:23:03.516Z,23.20
2017-09-01T15:25:30.556Z,23.30
2017-09-01T15:27:57.559Z,23.20
2017-09-01T15:30:25.175Z,22.90
2017-09-01T15:32:52.160Z,22.80
2017-09-01T15:35:19.786Z,22.00
2017-09-01T15:37:46.712Z,22.00
2017-09-01T15:40:13.806Z,22.20
2017-09-01T15:42:40.803Z,21.70
2017-09-01T15:45:09.022Z,22.10
2017-09-01T15:47:36.276Z,21.60
2017-09-01T15:50:03.163Z,21.60
2017-09-01T15:52:30.073Z,21.90
2017-09-01T15:54:57.133Z,21.60
2017-09-01T15:57:24.088Z,21.80
2017-09-01T15:59:51.756Z,21.20
2017-09-01T16:02:19.444Z,21.30
2017-09-01T16:04:46.412Z,21.30
2017-09-01T16:07:13.366Z,21.80
2017-09-01T16:09:40.280Z,21.90
2017-09-01T16:12:07.218Z,21.90
2017-09-01T16:14:34.199Z,21.60
2017-09-01T16:17:01.144Z,21.80
2017-09-01T16:19:28.020Z,22.00
2017-09-01T16:21:54.968Z,22.00
2017-09-01T16:24:21.876Z,21.90
2017-09-01T16:26:48.789Z,22.10
2017-09-01T16:29:15.675Z,21.90
2017-09-01T16:31:42.623Z,21.80
2017-09-01T16:34:09.580Z,21.80
2017-09-01T16:36:36.465Z,21.40
2017-09-01T16:39:03.626Z,21.50
2017-09-01T16:41:30.532Z,21.50
2017-09-01T16:43:57.573Z,21.60
2017-09-01T16:46:24.502Z,21.40
2017-09-01T16:48:51.432Z,21.40
2017-09-01T16:51:18.404Z,21.40
2017-09-01T16:53:45.425Z,21.30
2017-09-01T16:56:12.368Z,21.30
2017-09-01T16:58:39.299Z,21.30
2017-09-01T17:01:06.158Z,21.20
2017-09-01T17:03:33.137Z,21.20
2017-09-01T17:06:00.035Z,21.10
2017-09-01T17:08:26.929Z,21.10
2017-09-01T17:10:53.900Z,21.20
2017-09-01T17:13:20.833Z,21.20
2017-09-01T17:15:47.901Z,21.10
2017-09-01T17:18:15.632Z,20.90
2017-09-01T17:20:42.660Z,20.90
2017-09-01T17:23:09.725Z,20.80
2017-09-01T17:25:36.600Z,20.80
2017-09-01T17:28:04.236Z,20.60
2017-09-01T17:30:31.168Z,20.60
2017-09-01T17:32:58.141Z,20.40
2017-09-01T17:35:25.148Z,20.20
2017-09-01T17:37:52.080Z,20.20
2017-09-01T17:40:18.990Z,20.20
2017-09-01T17:42:45.939Z,20.00
2017-09-01T17:45:12.936Z,20.00
2017-09-01T17:47:39.888Z,20.00
2017-09-01T17:50:06.788Z,19.90
2017-09-01T17:52:34.450Z,19.80
2017-09-01T17:55:02.149Z,19.80
2017-09-01T17:57:29.045Z,19.80
2017-09-01T17:59:55.916Z,19.70
2017-09-01T18:02:22.858Z,19.60
2017-09-01T18:04:49.798Z,19.60
2017-09-01T18:07:19.197Z,19.30
2017-09-01T18:09:47.528Z,19.20
2017-09-01T18:12:14.431Z,19.20
2017-09-01T18:14:42.110Z,18.90
2017-09-01T18:17:08.997Z,19.00
2017-09-01T18:19:43.306Z,18.80
2017-09-01T18:22:10.187Z,18.70
2017-09-01T18:24:37.128Z,18.60
2017-09-01T18:27:03.993Z,18.50
2017-09-01T18:29:30.895Z,18.40
2017-09-01T18:31:57.855Z,18.30
2017-09-01T18:34:24.846Z,18.30
2017-09-01T18:36:51.739Z,18.20
2017-09-01T18:39:18.606Z,18.20
2017-09-01T18:41:53.285Z,18.00
2017-09-01T18:44:20.224Z,18.00
2017-09-01T18:46:47.238Z,17.90
2017-09-01T18:49:14.859Z,17.80
2017-09-01T18:51:41.849Z,17.80
2017-09-01T18:54:09.505Z,17.60
2017-09-01T18:56:36.447Z,17.60
2017-09-01T18:59:04.156Z,17.50
2017-09-01T19:01:31.084Z,17.50
2017-09-01T19:03:57.955Z,17.40
2017-09-01T19:06:24.889Z,17.40
2017-09-01T19:08:51.767Z,17.30
2017-09-01T19:11:18.755Z,17.30
2017-09-01T19:13:46.375Z,17.10
2017-09-01T19:16:13.328Z,17.10
2017-09-01T19:18:40.287Z,17.10
2017-09-01T19:21:07.246Z,17.10
2017-09-01T19:23:34.934Z,17.00
2017-09-01T19:26:01.837Z,17.00
2017-09-01T19:28:28.789Z,16.90
2017-09-01T19:30:56.597Z,17.00
2017-09-01T19:33:23.532Z,17.20
2017-09-01T19:35:50.482Z,17.30
2017-09-01T19:38:17.460Z,17.30
2017-09-01T19:40:44.420Z,17.10
2017-09-01T19:43:11.296Z,17.20
2017-09-01T19:45:38.286Z,17.20
2017-09-01T19:48:05.176Z,17.10
2017-09-01T19:50:32.044Z,16.90
2017-09-01T19:52:59.773Z,17.00
2017-09-01T19:55:26.775Z,16.90
2017-09-01T19:57:53.796Z,17.00
2017-09-01T20:00:21.434Z,16.90
2017-09-01T20:02:48.326Z,16.90
2017-09-01T20:05:15.336Z,17.00
2017-09-01T20:07:42.251Z,16.90
2017-09-01T20:10:09.237Z,16.90
2017-09-01T20:12:50.045Z,16.90
2017-09-01T20:15:18.958Z,17.00
2017-09-01T20:20:27.075Z,16.70
2017-09-01T20:22:54.084Z,16.70
2017-09-01T20:25:21.718Z,16.80
2017-09-01T20:27:49.542Z,16.70
2017-09-01T20:30:17.338Z,16.70
2017-09-01T20:32:45.206Z,16.80
2017-09-01T20:35:12.130Z,16.80
2017-09-01T20:37:39.144Z,16.70
2017-09-01T20:40:08.873Z,16.80
2017-09-01T20:42:35.856Z,16.80
2017-09-01T20:45:02.992Z,16.80
2017-09-01T20:47:46.265Z,16.80
2017-09-01T20:50:14.237Z,16.80
2017-09-01T20:52:46.933Z,16.70
2017-09-01T20:55:14.836Z,16.70
2017-09-01T20:57:41.862Z,16.70
2017-09-01T21:00:08.827Z,16.80
2017-09-01T21:02:35.854Z,16.70
2017-09-01T21:05:02.772Z,16.50
2017-09-01T21:07:30.477Z,16.30
2017-09-01T21:09:58.073Z,16.30
2017-09-01T21:12:25.201Z,16.40
2017-09-01T21:14:52.881Z,16.30
2017-09-01T21:17:23.387Z,16.20
2017-09-01T21:19:50.435Z,16.00
2017-09-01T21:22:17.313Z,16.10
2017-09-01T21:24:44.272Z,16.10
2017-09-01T21:27:11.192Z,16.10
2017-09-01T21:29:38.079Z,16.10
2017-09-01T21:32:05.105Z,16.10
2017-09-01T21:34:31.999Z,16.10
2017-09-01T21:36:58.889Z,16.20
2017-09-01T21:39:25.819Z,16.20
2017-09-01T21:41:52.661Z,16.10
2017-09-01T21:44:19.557Z,16.30
2017-09-01T21:46:46.491Z,16.30
2017-09-01T21:49:13.382Z,16.20
2017-09-01T21:51:40.363Z,16.30
2017-09-01T21:54:07.303Z,16.10
2017-09-01T21:56:34.184Z,16.30
2017-09-01T21:59:01.118Z,16.40
2017-09-01T22:01:33.081Z,16.50
2017-09-01T22:04:00.033Z,16.50
2017-09-01T22:06:26.936Z,16.50
2017-09-01T22:08:54.938Z,16.60
2017-09-01T22:11:23.100Z,16.60
2017-09-01T22:13:53.981Z,16.70
2017-09-01T22:16:23.762Z,16.80
2017-09-01T22:18:52.127Z,16.70
2017-09-01T22:21:33.527Z,16.80
2017-09-01T22:24:06.603Z,16.80
2017-09-01T22:26:37.614Z,16.90
2017-09-01T22:29:16.942Z,16.90
2017-09-01T22:31:45.847Z,16.80
2017-09-01T22:34:13.796Z,16.80
2017-09-01T22:36:51.024Z,16.70
2017-09-01T22:39:20.529Z,16.80
2017-09-01T22:41:50.083Z,16.80
2017-09-01T22:44:17.790Z,16.80
2017-09-01T22:46:46.710Z,16.80
2017-09-01T22:49:15.621Z,16.80
2017-09-01T22:51:45.081Z,16.70
2017-09-01T22:54:13.529Z,16.70
2017-09-01T22:56:42.647Z,16.70
2017-09-01T22:59:09.750Z,16.70
2017-09-01T23:01:38.103Z,16.70
2017-09-01T23:04:06.096Z,16.70
2017-09-01T23:06:35.248Z,16.70
2017-09-01T23:09:03.625Z,16.70
2017-09-01T23:11:32.088Z,16.60
2017-09-01T23:13:59.128Z,16.60
2017-09-01T23:16:26.105Z,16.50
2017-09-01T23:18:52.983Z,16.50
2017-09-01T23:21:19.952Z,16.50
2017-09-01T23:23:46.832Z,16.30
2017-09-01T23:26:14.560Z,16.40
2017-09-01T23:28:41.460Z,16.30
2017-09-01T23:31:08.343Z,16.30
2017-09-01T23:33:35.316Z,16.40
2017-09-01T23:36:02.192Z,16.40
2017-09-01T23:38:29.063Z,16.40
2017-09-01T23:40:55.987Z,16.30
2017-09-01T23:43:22.960Z,16.20
2017-09-01T23:45:49.909Z,16.10
2017-09-01T23:48:16.811Z,16.00
2017-09-01T23:50:43.757Z,15.90
2017-09-01T23:53:11.427Z,15.70
2017-09-01T23:55:38.292Z,15.70
2017-09-01T23:58:05.235Z,15.60
